sensor_id;sensor_type;location;lat;lon;timestamp;pressure;altitude;pressure_sealevel;temperature;humidity
81299;BME280;70766;53.170;18.160;2023-12-22T00:00:36;97160.80;;;4.71;100.00
81299;BME280;70766;53.170;18.160;2023-12-22T00:03:24;97164.78;;;4.71;100.00
81299;BME280;70766;53.170;18.160;2023-12-22T00:05:53;97158.78;;;4.72;100.00
81299;BME280;70766;53.170;18.160;2023-12-22T00:08:21;97151.80;;;4.74;100.00
81299;BME280;70766;53.170;18.160;2023-12-22T00:10:51;97157.09;;;4.78;100.00
81299;BME280;70766;53.170;18.160;2023-12-22T00:13:19;97152.98;;;4.82;100.00
81299;BME280;70766;53.170;18.160;2023-12-22T00:15:47;97149.30;;;4.82;100.00
81299;BME280;70766;53.170;18.160;2023-12-22T00:18:15;97148.62;;;4.83;100.00
81299;BME280;70766;53.170;18.160;2023-12-22T00:20:43;97140.80;;;4.84;100.00
81299;BME280;70766;53.170;18.160;2023-12-22T00:23:12;97139.21;;;4.82;100.00
81299;BME280;70766;53.170;18.160;2023-12-22T00:25:40;97133.31;;;4.83;100.00
81299;BME280;70766;53.170;18.160;2023-12-22T00:28:08;97137.25;;;4.83;100.00
81299;BME280;70766;53.170;18.160;2023-12-22T00:30:36;97144.54;;;4.81;100.00
81299;BME280;70766;53.170;18.160;2023-12-22T00:33:04;97133.16;;;4.81;100.00
81299;BME280;70766;53.170;18.160;2023-12-22T00:35:32;97142.84;;;4.81;100.00
81299;BME280;70766;53.170;18.160;2023-12-22T00:38:01;97155.23;;;4.78;100.00
81299;BME280;70766;53.170;18.160;2023-12-22T00:40:29;97157.98;;;4.72;100.00
81299;BME280;70766;53.170;18.160;2023-12-22T00:42:57;97174.64;;;4.65;100.00
81299;BME280;70766;53.170;18.160;2023-12-22T00:45:25;97176.29;;;4.51;100.00
81299;BME280;70766;53.170;18.160;2023-12-22T00:47:54;97202.55;;;4.14;100.00
81299;BME280;70766;53.170;18.160;2023-12-22T00:50:22;97248.81;;;3.76;100.00
81299;BME280;70766;53.170;18.160;2023-12-22T00:52:50;97238.86;;;3.51;100.00
81299;BME280;70766;53.170;18.160;2023-12-22T00:55:18;97264.15;;;3.21;100.00
81299;BME280;70766;53.170;18.160;2023-12-22T00:57:46;97254.05;;;3.07;100.00
81299;BME280;70766;53.170;18.160;2023-12-22T01:00:15;97245.07;;;2.95;100.00
81299;BME280;70766;53.170;18.160;2023-12-22T01:02:43;97249.29;;;2.89;100.00
81299;BME280;70766;53.170;18.160;2023-12-22T01:05:12;97247.16;;;2.86;100.00
81299;BME280;70766;53.170;18.160;2023-12-22T01:07:40;97246.73;;;2.82;100.00
81299;BME280;70766;53.170;18.160;2023-12-22T01:10:09;97243.48;;;2.76;100.00
81299;BME280;70766;53.170;18.160;2023-12-22T01:12:37;97242.84;;;2.74;100.00
81299;BME280;70766;53.170;18.160;2023-12-22T01:15:05;97245.27;;;2.73;100.00
81299;BME280;70766;53.170;18.160;2023-12-22T01:17:34;97246.17;;;2.72;100.00
81299;BME280;70766;53.170;18.160;2023-12-22T01:20:02;97237.64;;;2.72;100.00
81299;BME280;70766;53.170;18.160;2023-12-22T01:22:31;97235.52;;;2.69;100.00
81299;BME280;70766;53.170;18.160;2023-12-22T01:25:00;97220.43;;;2.72;100.00
81299;BME280;70766;53.170;18.160;2023-12-22T01:27:29;97235.90;;;2.71;100.00
81299;BME280;70766;53.170;18.160;2023-12-22T01:29:57;97223.78;;;2.77;100.00
81299;BME280;70766;53.170;18.160;2023-12-22T01:32:25;97237.55;;;2.79;100.00
81299;BME280;70766;53.170;18.160;2023-12-22T01:34:53;97251.59;;;2.80;100.00
81299;BME280;70766;53.170;18.160;2023-12-22T01:37:21;97254.24;;;2.83;100.00
81299;BME280;70766;53.170;18.160;2023-12-22T01:39:51;97256.12;;;2.87;100.00
81299;BME280;70766;53.170;18.160;2023-12-22T01:42:20;97254.02;;;2.91;100.00
81299;BME280;70766;53.170;18.160;2023-12-22T01:44:48;97254.38;;;2.91;100.00
81299;BME280;70766;53.170;18.160;2023-12-22T01:47:16;97256.61;;;2.91;100.00
81299;BME280;70766;53.170;18.160;2023-12-22T01:49:44;97248.26;;;2.95;100.00
81299;BME280;70766;53.170;18.160;2023-12-22T01:52:12;97258.27;;;2.95;100.00
81299;BME280;70766;53.170;18.160;2023-12-22T01:54:40;97252.08;;;2.97;100.00
81299;BME280;70766;53.170;18.160;2023-12-22T01:57:09;97263.14;;;2.98;100.00
81299;BME280;70766;53.170;18.160;2023-12-22T01:59:41;97257.98;;;2.89;100.00
81299;BME280;70766;53.170;18.160;2023-12-22T02:02:09;97259.03;;;2.86;100.00
81299;BME280;70766;53.170;18.160;2023-12-22T02:04:37;97254.67;;;2.80;100.00
81299;BME280;70766;53.170;18.160;2023-12-22T02:07:05;97266.08;;;2.73;100.00
81299;BME280;70766;53.170;18.160;2023-12-22T02:09:36;97270.02;;;2.66;100.00
81299;BME280;70766;53.170;18.160;2023-12-22T02:12:05;97266.04;;;2.63;100.00
81299;BME280;70766;53.170;18.160;2023-12-22T02:14:33;97283.96;;;2.57;100.00
81299;BME280;70766;53.170;18.160;2023-12-22T02:17:15;97269.65;;;2.52;100.00
81299;BME280;70766;53.170;18.160;2023-12-22T02:19:50;97273.42;;;2.46;100.00
81299;BME280;70766;53.170;18.160;2023-12-22T02:22:18;97275.90;;;2.45;100.00
81299;BME280;70766;53.170;18.160;2023-12-22T02:24:46;97271.67;;;2.45;100.00
81299;BME280;70766;53.170;18.160;2023-12-22T02:32:43;97286.00;;;2.41;100.00
81299;BME280;70766;53.170;18.160;2023-12-22T02:35:19;97279.36;;;2.38;100.00
81299;BME280;70766;53.170;18.160;2023-12-22T02:37:49;97275.68;;;2.41;100.00
81299;BME280;70766;53.170;18.160;2023-12-22T02:40:20;97278.20;;;2.40;100.00
81299;BME280;70766;53.170;18.160;2023-12-22T02:42:49;97282.03;;;2.43;100.00
81299;BME280;70766;53.170;18.160;2023-12-22T02:45:18;97283.27;;;2.43;100.00
81299;BME280;70766;53.170;18.160;2023-12-22T02:47:47;97283.73;;;2.43;100.00
81299;BME280;70766;53.170;18.160;2023-12-22T02:50:17;97285.95;;;2.42;100.00
81299;BME280;70766;53.170;18.160;2023-12-22T02:52:45;97295.13;;;2.45;100.00
81299;BME280;70766;53.170;18.160;2023-12-22T02:55:13;97288.67;;;2.45;100.00
81299;BME280;70766;53.170;18.160;2023-12-22T02:57:41;97291.70;;;2.48;100.00
81299;BME280;70766;53.170;18.160;2023-12-22T03:00:10;97286.41;;;2.48;100.00
81299;BME280;70766;53.170;18.160;2023-12-22T03:02:38;97282.28;;;2.50;100.00
81299;BME280;70766;53.170;18.160;2023-12-22T03:05:07;97278.27;;;2.51;100.00
81299;BME280;70766;53.170;18.160;2023-12-22T03:07:35;97278.30;;;2.59;100.00
81299;BME280;70766;53.170;18.160;2023-12-22T03:10:04;97281.45;;;2.61;100.00
81299;BME280;70766;53.170;18.160;2023-12-22T03:12:32;97292.25;;;2.63;100.00
81299;BME280;70766;53.170;18.160;2023-12-22T03:15:00;97284.48;;;2.64;100.00
81299;BME280;70766;53.170;18.160;2023-12-22T03:17:28;97301.46;;;2.62;100.00
81299;BME280;70766;53.170;18.160;2023-12-22T03:19:56;97294.66;;;2.59;100.00
81299;BME280;70766;53.170;18.160;2023-12-22T03:22:25;97291.53;;;2.66;100.00
81299;BME280;70766;53.170;18.160;2023-12-22T03:24:53;97284.44;;;2.69;100.00
81299;BME280;70766;53.170;18.160;2023-12-22T03:27:21;97285.05;;;2.77;100.00
81299;BME280;70766;53.170;18.160;2023-12-22T03:29:49;97283.65;;;2.81;100.00
81299;BME280;70766;53.170;18.160;2023-12-22T03:32:17;97285.02;;;2.81;100.00
81299;BME280;70766;53.170;18.160;2023-12-22T03:34:45;97295.16;;;2.88;100.00
81299;BME280;70766;53.170;18.160;2023-12-22T03:37:14;97308.66;;;2.86;100.00
81299;BME280;70766;53.170;18.160;2023-12-22T03:39:42;97306.45;;;2.92;100.00
81299;BME280;70766;53.170;18.160;2023-12-22T03:42:10;97305.85;;;3.00;100.00
81299;BME280;70766;53.170;18.160;2023-12-22T03:44:38;97299.42;;;3.13;100.00
81299;BME280;70766;53.170;18.160;2023-12-22T03:47:07;97312.05;;;3.17;100.00
81299;BME280;70766;53.170;18.160;2023-12-22T03:49:35;97301.56;;;3.21;100.00
81299;BME280;70766;53.170;18.160;2023-12-22T03:52:05;97305.30;;;3.29;100.00
81299;BME280;70766;53.170;18.160;2023-12-22T03:54:33;97317.66;;;3.34;100.00
81299;BME280;70766;53.170;18.160;2023-12-22T03:57:01;97307.91;;;3.35;100.00
81299;BME280;70766;53.170;18.160;2023-12-22T03:59:29;97310.89;;;3.40;100.00
81299;BME280;70766;53.170;18.160;2023-12-22T04:01:57;97302.83;;;3.43;100.00
81299;BME280;70766;53.170;18.160;2023-12-22T04:04:29;97307.66;;;3.47;100.00
81299;BME280;70766;53.170;18.160;2023-12-22T04:06:57;97307.35;;;3.50;100.00
81299;BME280;70766;53.170;18.160;2023-12-22T04:09:25;97312.71;;;3.51;100.00
81299;BME280;70766;53.170;18.160;2023-12-22T04:11:53;97327.18;;;3.51;100.00
81299;BME280;70766;53.170;18.160;2023-12-22T04:14:21;97327.66;;;3.51;100.00
81299;BME280;70766;53.170;18.160;2023-12-22T04:16:49;97329.52;;;3.54;100.00
81299;BME280;70766;53.170;18.160;2023-12-22T04:19:18;97330.90;;;3.57;100.00
81299;BME280;70766;53.170;18.160;2023-12-22T04:21:47;97331.50;;;3.63;100.00
81299;BME280;70766;53.170;18.160;2023-12-22T04:24:15;97330.70;;;3.64;100.00
81299;BME280;70766;53.170;18.160;2023-12-22T04:26:43;97331.50;;;3.60;100.00
81299;BME280;70766;53.170;18.160;2023-12-22T04:29:11;97338.64;;;3.56;100.00
81299;BME280;70766;53.170;18.160;2023-12-22T04:31:39;97337.00;;;3.56;100.00
81299;BME280;70766;53.170;18.160;2023-12-22T04:34:07;97337.91;;;3.55;100.00
81299;BME280;70766;53.170;18.160;2023-12-22T04:36:35;97341.35;;;3.56;100.00
81299;BME280;70766;53.170;18.160;2023-12-22T04:39:04;97337.80;;;3.59;100.00
81299;BME280;70766;53.170;18.160;2023-12-22T04:41:32;97346.30;;;3.58;98.17
81299;BME280;70766;53.170;18.160;2023-12-22T04:44:00;97335.90;;;3.64;98.44
81299;BME280;70766;53.170;18.160;2023-12-22T04:46:31;97343.11;;;3.62;98.24
81299;BME280;70766;53.170;18.160;2023-12-22T04:48:59;97331.98;;;3.63;96.80
81299;BME280;70766;53.170;18.160;2023-12-22T04:51:27;97340.61;;;3.60;95.12
81299;BME280;70766;53.170;18.160;2023-12-22T04:53:55;97341.27;;;3.65;94.93
81299;BME280;70766;53.170;18.160;2023-12-22T04:56:23;97345.98;;;3.64;98.50
81299;BME280;70766;53.170;18.160;2023-12-22T04:58:51;97347.87;;;3.60;98.31
81299;BME280;70766;53.170;18.160;2023-12-22T05:01:20;97353.59;;;3.56;98.80
81299;BME280;70766;53.170;18.160;2023-12-22T05:03:48;97347.66;;;3.55;99.74
81299;BME280;70766;53.170;18.160;2023-12-22T05:06:17;97347.59;;;3.52;98.85
81299;BME280;70766;53.170;18.160;2023-12-22T05:08:45;97354.96;;;3.50;99.08
81299;BME280;70766;53.170;18.160;2023-12-22T05:11:13;97360.73;;;3.48;100.00
81299;BME280;70766;53.170;18.160;2023-12-22T05:13:41;97357.13;;;3.46;100.00
81299;BME280;70766;53.170;18.160;2023-12-22T05:16:11;97358.50;;;3.43;99.95
81299;BME280;70766;53.170;18.160;2023-12-22T05:18:39;97349.85;;;3.44;99.79
81299;BME280;70766;53.170;18.160;2023-12-22T05:21:07;97361.94;;;3.41;99.89
81299;BME280;70766;53.170;18.160;2023-12-22T05:23:36;97341.42;;;3.41;99.77
81299;BME280;70766;53.170;18.160;2023-12-22T05:26:04;97343.08;;;3.41;97.12
81299;BME280;70766;53.170;18.160;2023-12-22T05:28:33;97346.73;;;3.39;95.06
81299;BME280;70766;53.170;18.160;2023-12-22T05:31:01;97346.71;;;3.37;96.23
81299;BME280;70766;53.170;18.160;2023-12-22T05:33:29;97347.45;;;3.30;96.28
81299;BME280;70766;53.170;18.160;2023-12-22T05:35:57;97341.11;;;3.24;91.42
81299;BME280;70766;53.170;18.160;2023-12-22T05:38:25;97346.66;;;3.18;92.69
81299;BME280;70766;53.170;18.160;2023-12-22T05:40:53;97343.73;;;3.11;91.93
81299;BME280;70766;53.170;18.160;2023-12-22T05:43:22;97351.44;;;3.06;89.53
81299;BME280;70766;53.170;18.160;2023-12-22T05:45:50;97356.77;;;3.02;86.70
81299;BME280;70766;53.170;18.160;2023-12-22T05:48:18;97360.35;;;2.95;86.11
81299;BME280;70766;53.170;18.160;2023-12-22T05:50:50;97361.60;;;2.93;85.32
81299;BME280;70766;53.170;18.160;2023-12-22T05:53:18;97358.62;;;2.88;84.61
81299;BME280;70766;53.170;18.160;2023-12-22T05:55:46;97367.60;;;2.83;86.10
81299;BME280;70766;53.170;18.160;2023-12-22T05:58:14;97366.86;;;2.75;86.33
81299;BME280;70766;53.170;18.160;2023-12-22T06:00:42;97369.82;;;2.71;89.91
81299;BME280;70766;53.170;18.160;2023-12-22T06:03:10;97364.39;;;2.67;87.71
81299;BME280;70766;53.170;18.160;2023-12-22T06:05:39;97376.80;;;2.64;89.94
81299;BME280;70766;53.170;18.160;2023-12-22T06:08:07;97371.73;;;2.57;89.58
81299;BME280;70766;53.170;18.160;2023-12-22T06:10:35;97373.55;;;2.57;88.42
81299;BME280;70766;53.170;18.160;2023-12-22T06:13:04;97365.45;;;2.60;88.48
81299;BME280;70766;53.170;18.160;2023-12-22T06:15:33;97362.17;;;2.61;91.42
81299;BME280;70766;53.170;18.160;2023-12-22T06:18:01;97368.42;;;2.61;92.09
81299;BME280;70766;53.170;18.160;2023-12-22T06:20:30;97374.44;;;2.64;91.61
81299;BME280;70766;53.170;18.160;2023-12-22T06:22:58;97380.91;;;2.68;93.48
81299;BME280;70766;53.170;18.160;2023-12-22T06:25:26;97376.86;;;2.64;96.91
81299;BME280;70766;53.170;18.160;2023-12-22T06:27:55;97381.00;;;2.57;98.29
81299;BME280;70766;53.170;18.160;2023-12-22T06:30:23;97376.25;;;2.50;100.00
81299;BME280;70766;53.170;18.160;2023-12-22T06:32:51;97384.11;;;2.47;100.00
81299;BME280;70766;53.170;18.160;2023-12-22T06:35:20;97400.92;;;2.44;99.60
81299;BME280;70766;53.170;18.160;2023-12-22T06:37:51;97400.86;;;2.51;99.40
81299;BME280;70766;53.170;18.160;2023-12-22T06:40:20;97396.92;;;2.54;98.87
81299;BME280;70766;53.170;18.160;2023-12-22T06:42:48;97418.94;;;2.54;98.48
81299;BME280;70766;53.170;18.160;2023-12-22T06:45:16;97421.08;;;2.57;98.74
81299;BME280;70766;53.170;18.160;2023-12-22T06:47:45;97422.81;;;2.55;97.63
81299;BME280;70766;53.170;18.160;2023-12-22T06:50:13;97417.83;;;2.54;99.19
81299;BME280;70766;53.170;18.160;2023-12-22T06:52:42;97431.94;;;2.50;100.00
81299;BME280;70766;53.170;18.160;2023-12-22T06:55:10;97435.64;;;2.49;100.00
81299;BME280;70766;53.170;18.160;2023-12-22T06:57:40;97422.90;;;2.39;100.00
81299;BME280;70766;53.170;18.160;2023-12-22T07:00:11;97416.62;;;2.21;100.00
81299;BME280;70766;53.170;18.160;2023-12-22T07:02:39;97414.25;;;2.04;100.00
81299;BME280;70766;53.170;18.160;2023-12-22T07:07:53;97412.09;;;1.77;100.00
81299;BME280;70766;53.170;18.160;2023-12-22T07:10:22;97412.08;;;1.69;100.00
81299;BME280;70766;53.170;18.160;2023-12-22T07:12:50;97410.89;;;1.63;100.00
81299;BME280;70766;53.170;18.160;2023-12-22T07:15:18;97414.10;;;1.60;100.00
81299;BME280;70766;53.170;18.160;2023-12-22T07:17:48;97407.98;;;1.58;100.00
81299;BME280;70766;53.170;18.160;2023-12-22T07:20:17;97395.27;;;1.59;100.00
81299;BME280;70766;53.170;18.160;2023-12-22T07:22:46;97396.72;;;1.62;100.00
81299;BME280;70766;53.170;18.160;2023-12-22T07:25:14;97388.73;;;1.69;100.00
81299;BME280;70766;53.170;18.160;2023-12-22T07:27:42;97387.90;;;1.79;100.00
81299;BME280;70766;53.170;18.160;2023-12-22T07:30:11;97382.98;;;1.90;100.00
81299;BME280;70766;53.170;18.160;2023-12-22T07:32:47;97385.55;;;2.00;100.00
81299;BME280;70766;53.170;18.160;2023-12-22T07:35:20;97384.71;;;2.21;100.00
81299;BME280;70766;53.170;18.160;2023-12-22T07:37:49;97394.29;;;2.42;100.00
81299;BME280;70766;53.170;18.160;2023-12-22T07:40:17;97393.45;;;2.59;99.73
81299;BME280;70766;53.170;18.160;2023-12-22T07:42:45;97399.35;;;2.69;99.37
81299;BME280;70766;53.170;18.160;2023-12-22T07:45:14;97408.55;;;2.77;97.02
81299;BME280;70766;53.170;18.160;2023-12-22T07:47:42;97418.16;;;2.80;94.81
81299;BME280;70766;53.170;18.160;2023-12-22T07:50:10;97411.95;;;2.78;94.89
81299;BME280;70766;53.170;18.160;2023-12-22T07:52:39;97408.84;;;2.79;94.57
81299;BME280;70766;53.170;18.160;2023-12-22T07:55:09;97403.80;;;2.80;95.69
81299;BME280;70766;53.170;18.160;2023-12-22T07:57:39;97412.96;;;2.79;93.41
81299;BME280;70766;53.170;18.160;2023-12-22T08:00:07;97405.67;;;2.83;91.83
81299;BME280;70766;53.170;18.160;2023-12-22T08:02:40;97409.61;;;2.86;90.42
81299;BME280;70766;53.170;18.160;2023-12-22T08:05:09;97409.58;;;2.89;87.53
81299;BME280;70766;53.170;18.160;2023-12-22T08:07:37;97400.70;;;2.93;85.41
81299;BME280;70766;53.170;18.160;2023-12-22T08:10:06;97403.96;;;2.98;86.77
81299;BME280;70766;53.170;18.160;2023-12-22T08:12:34;97406.57;;;3.01;84.68
81299;BME280;70766;53.170;18.160;2023-12-22T08:15:03;97398.85;;;3.07;86.75
81299;BME280;70766;53.170;18.160;2023-12-22T08:17:32;97398.23;;;3.10;87.06
81299;BME280;70766;53.170;18.160;2023-12-22T08:20:02;97400.80;;;3.18;87.15
81299;BME280;70766;53.170;18.160;2023-12-22T08:22:40;97397.11;;;3.30;88.93
81299;BME280;70766;53.170;18.160;2023-12-22T08:25:14;97398.15;;;3.39;88.63
81299;BME280;70766;53.170;18.160;2023-12-22T08:27:43;97409.98;;;3.45;90.12
81299;BME280;70766;53.170;18.160;2023-12-22T08:30:11;97388.26;;;3.47;92.05
81299;BME280;70766;53.170;18.160;2023-12-22T08:32:40;97391.66;;;3.35;94.30
81299;BME280;70766;53.170;18.160;2023-12-22T08:35:08;97388.73;;;3.34;93.36
81299;BME280;70766;53.170;18.160;2023-12-22T08:37:37;97420.89;;;3.30;96.13
81299;BME280;70766;53.170;18.160;2023-12-22T08:40:09;97406.42;;;3.17;100.00
81299;BME280;70766;53.170;18.160;2023-12-22T08:42:37;97412.77;;;2.94;100.00
81299;BME280;70766;53.170;18.160;2023-12-22T08:45:07;97415.55;;;2.79;100.00
81299;BME280;70766;53.170;18.160;2023-12-22T08:47:35;97407.02;;;2.61;100.00
81299;BME280;70766;53.170;18.160;2023-12-22T08:50:04;97407.47;;;2.49;100.00
81299;BME280;70766;53.170;18.160;2023-12-22T08:52:36;97400.65;;;2.42;100.00
81299;BME280;70766;53.170;18.160;2023-12-22T08:55:04;97400.17;;;2.45;100.00
81299;BME280;70766;53.170;18.160;2023-12-22T08:57:33;97400.38;;;2.49;100.00
81299;BME280;70766;53.170;18.160;2023-12-22T09:00:01;97405.16;;;2.59;100.00
81299;BME280;70766;53.170;18.160;2023-12-22T09:02:29;97398.60;;;2.86;100.00
81299;BME280;70766;53.170;18.160;2023-12-22T09:04:58;97392.27;;;3.16;100.00
81299;BME280;70766;53.170;18.160;2023-12-22T09:07:26;97410.86;;;3.51;100.00
81299;BME280;70766;53.170;18.160;2023-12-22T09:09:54;97399.27;;;3.60;100.00
81299;BME280;70766;53.170;18.160;2023-12-22T09:12:22;97420.13;;;3.47;100.00
81299;BME280;70766;53.170;18.160;2023-12-22T09:14:50;97412.40;;;3.51;100.00
81299;BME280;70766;53.170;18.160;2023-12-22T09:17:19;97403.33;;;3.55;100.00
81299;BME280;70766;53.170;18.160;2023-12-22T09:19:47;97411.48;;;3.49;100.00
81299;BME280;70766;53.170;18.160;2023-12-22T09:22:15;97401.09;;;3.47;100.00
81299;BME280;70766;53.170;18.160;2023-12-22T09:24:45;97400.65;;;3.44;100.00
81299;BME280;70766;53.170;18.160;2023-12-22T09:27:13;97394.05;;;3.35;100.00
81299;BME280;70766;53.170;18.160;2023-12-22T09:29:41;97388.02;;;3.39;100.00
81299;BME280;70766;53.170;18.160;2023-12-22T09:32:10;97381.08;;;3.38;100.00
81299;BME280;70766;53.170;18.160;2023-12-22T09:34:38;97374.10;;;3.45;100.00
81299;BME280;70766;53.170;18.160;2023-12-22T09:37:07;97349.08;;;3.48;100.00
81299;BME280;70766;53.170;18.160;2023-12-22T09:39:35;97365.91;;;3.38;100.00
81299;BME280;70766;53.170;18.160;2023-12-22T09:42:05;97379.62;;;3.33;100.00
81299;BME280;70766;53.170;18.160;2023-12-22T09:44:35;97377.58;;;3.22;100.00
81299;BME280;70766;53.170;18.160;2023-12-22T09:47:04;97387.45;;;3.16;100.00
81299;BME280;70766;53.170;18.160;2023-12-22T09:49:33;97381.07;;;3.08;100.00
81299;BME280;70766;53.170;18.160;2023-12-22T09:52:04;97385.62;;;2.97;100.00
81299;BME280;70766;53.170;18.160;2023-12-22T09:54:35;97394.80;;;2.90;100.00
81299;BME280;70766;53.170;18.160;2023-12-22T09:57:05;97392.89;;;2.87;100.00
81299;BME280;70766;53.170;18.160;2023-12-22T09:59:51;97397.23;;;2.88;100.00
81299;BME280;70766;53.170;18.160;2023-12-22T10:02:20;97394.12;;;2.90;100.00
81299;BME280;70766;53.170;18.160;2023-12-22T10:04:48;97389.94;;;2.89;100.00
81299;BME280;70766;53.170;18.160;2023-12-22T10:07:17;97401.06;;;2.83;100.00
81299;BME280;70766;53.170;18.160;2023-12-22T10:09:46;97397.99;;;2.73;100.00
81299;BME280;70766;53.170;18.160;2023-12-22T10:12:16;97401.66;;;2.68;100.00
81299;BME280;70766;53.170;18.160;2023-12-22T10:14:47;97407.46;;;2.64;100.00
81299;BME280;70766;53.170;18.160;2023-12-22T10:17:16;97398.42;;;2.59;100.00
81299;BME280;70766;53.170;18.160;2023-12-22T10:19:45;97399.61;;;2.45;100.00
81299;BME280;70766;53.170;18.160;2023-12-22T10:22:13;97401.80;;;2.40;100.00
81299;BME280;70766;53.170;18.160;2023-12-22T10:24:45;97394.98;;;2.35;100.00
81299;BME280;70766;53.170;18.160;2023-12-22T10:27:19;97387.71;;;2.26;100.00
81299;BME280;70766;53.170;18.160;2023-12-22T10:29:54;97380.90;;;2.27;100.00
81299;BME280;70766;53.170;18.160;2023-12-22T10:32:23;97380.21;;;2.28;100.00
81299;BME280;70766;53.170;18.160;2023-12-22T10:34:51;97381.48;;;2.22;100.00
81299;BME280;70766;53.170;18.160;2023-12-22T10:37:22;97378.64;;;2.24;100.00
81299;BME280;70766;53.170;18.160;2023-12-22T10:39:54;97374.54;;;2.25;100.00
81299;BME280;70766;53.170;18.160;2023-12-22T10:42:23;97376.43;;;2.23;100.00
81299;BME280;70766;53.170;18.160;2023-12-22T10:44:52;97384.88;;;2.22;100.00
81299;BME280;70766;53.170;18.160;2023-12-22T10:47:23;97377.75;;;2.24;100.00
81299;BME280;70766;53.170;18.160;2023-12-22T10:49:51;97379.77;;;2.24;100.00
81299;BME280;70766;53.170;18.160;2023-12-22T10:52:20;97380.23;;;2.23;100.00
81299;BME280;70766;53.170;18.160;2023-12-22T10:54:51;97384.65;;;2.19;100.00
81299;BME280;70766;53.170;18.160;2023-12-22T10:57:20;97367.86;;;2.19;100.00
81299;BME280;70766;53.170;18.160;2023-12-22T10:59:48;97358.99;;;2.20;100.00
81299;BME280;70766;53.170;18.160;2023-12-22T11:02:27;97359.98;;;2.25;100.00
81299;BME280;70766;53.170;18.160;2023-12-22T11:05:02;97365.17;;;2.27;100.00
81299;BME280;70766;53.170;18.160;2023-12-22T11:07:35;97366.03;;;2.27;100.00
81299;BME280;70766;53.170;18.160;2023-12-22T11:10:06;97365.00;;;2.31;100.00
81299;BME280;70766;53.170;18.160;2023-12-22T11:12:36;97361.80;;;2.35;100.00
81299;BME280;70766;53.170;18.160;2023-12-22T11:15:06;97351.50;;;2.31;100.00
81299;BME280;70766;53.170;18.160;2023-12-22T11:17:36;97349.80;;;2.29;100.00
81299;BME280;70766;53.170;18.160;2023-12-22T11:20:10;97348.63;;;2.21;100.00
81299;BME280;70766;53.170;18.160;2023-12-22T11:22:42;97355.30;;;2.15;100.00
81299;BME280;70766;53.170;18.160;2023-12-22T11:25:11;97349.29;;;2.10;100.00
81299;BME280;70766;53.170;18.160;2023-12-22T11:27:46;97348.73;;;2.01;100.00
81299;BME280;70766;53.170;18.160;2023-12-22T11:30:16;97351.80;;;1.94;100.00
81299;BME280;70766;53.170;18.160;2023-12-22T11:32:46;97351.65;;;1.88;100.00
81299;BME280;70766;53.170;18.160;2023-12-22T11:35:15;97352.30;;;1.77;100.00
81299;BME280;70766;53.170;18.160;2023-12-22T11:37:45;97359.17;;;1.67;100.00
81299;BME280;70766;53.170;18.160;2023-12-22T11:40:15;97358.88;;;1.58;100.00
81299;BME280;70766;53.170;18.160;2023-12-22T11:42:46;97365.45;;;1.48;100.00
81299;BME280;70766;53.170;18.160;2023-12-22T11:45:19;97368.05;;;1.44;100.00
81299;BME280;70766;53.170;18.160;2023-12-22T11:47:48;97358.45;;;1.41;100.00
81299;BME280;70766;53.170;18.160;2023-12-22T11:50:43;97371.05;;;1.43;100.00
81299;BME280;70766;53.170;18.160;2023-12-22T11:53:25;97375.59;;;1.44;100.00
81299;BME280;70766;53.170;18.160;2023-12-22T11:56:06;97370.23;;;1.47;100.00
81299;BME280;70766;53.170;18.160;2023-12-22T11:58:44;97381.23;;;1.46;100.00
81299;BME280;70766;53.170;18.160;2023-12-22T12:01:28;97376.83;;;1.44;100.00
81299;BME280;70766;53.170;18.160;2023-12-22T12:04:02;97373.70;;;1.50;100.00
81299;BME280;70766;53.170;18.160;2023-12-22T12:06:33;97377.90;;;1.51;100.00
81299;BME280;70766;53.170;18.160;2023-12-22T12:09:06;97380.70;;;1.53;100.00
81299;BME280;70766;53.170;18.160;2023-12-22T12:14:37;97384.97;;;1.55;100.00
81299;BME280;70766;53.170;18.160;2023-12-22T12:17:08;97377.94;;;1.56;100.00
81299;BME280;70766;53.170;18.160;2023-12-22T12:19:39;97389.66;;;1.56;100.00
81299;BME280;70766;53.170;18.160;2023-12-22T12:22:15;97386.41;;;1.56;100.00
81299;BME280;70766;53.170;18.160;2023-12-22T12:24:44;97383.92;;;1.57;100.00
81299;BME280;70766;53.170;18.160;2023-12-22T12:27:18;97379.89;;;1.55;100.00
81299;BME280;70766;53.170;18.160;2023-12-22T12:29:47;97384.88;;;1.46;100.00
81299;BME280;70766;53.170;18.160;2023-12-22T12:32:15;97387.40;;;1.45;100.00
81299;BME280;70766;53.170;18.160;2023-12-22T12:34:43;97375.23;;;1.43;100.00
81299;BME280;70766;53.170;18.160;2023-12-22T12:37:16;97372.30;;;1.46;100.00
81299;BME280;70766;53.170;18.160;2023-12-22T12:39:46;97375.16;;;1.47;100.00
81299;BME280;70766;53.170;18.160;2023-12-22T12:42:16;97369.52;;;1.49;100.00
81299;BME280;70766;53.170;18.160;2023-12-22T12:44:45;97384.18;;;1.51;100.00
81299;BME280;70766;53.170;18.160;2023-12-22T12:47:15;97368.79;;;1.50;100.00
81299;BME280;70766;53.170;18.160;2023-12-22T12:49:45;97371.55;;;1.46;100.00
81299;BME280;70766;53.170;18.160;2023-12-22T12:52:14;97373.61;;;1.45;100.00
81299;BME280;70766;53.170;18.160;2023-12-22T12:54:44;97380.09;;;1.48;100.00
81299;BME280;70766;53.170;18.160;2023-12-22T12:57:15;97379.17;;;1.48;100.00
81299;BME280;70766;53.170;18.160;2023-12-22T12:59:45;97380.23;;;1.51;100.00
81299;BME280;70766;53.170;18.160;2023-12-22T13:02:18;97372.98;;;1.50;100.00
81299;BME280;70766;53.170;18.160;2023-12-22T13:04:47;97382.02;;;1.40;100.00
81299;BME280;70766;53.170;18.160;2023-12-22T13:07:26;97388.74;;;1.38;100.00
81299;BME280;70766;53.170;18.160;2023-12-22T13:09:54;97382.39;;;1.31;100.00
81299;BME280;70766;53.170;18.160;2023-12-22T13:12:26;97396.20;;;1.28;100.00
81299;BME280;70766;53.170;18.160;2023-12-22T13:14:54;97402.90;;;1.23;100.00